Spilsby, United Kingdom
Current Conditions -  °F | °C
As of 1:50 AM on Monday 24 Nov 2014 (Local Time) from EGXC Reporting Station
Clear Clear  
Wind Chill: 34°   Ceiling: Unl
Heat Index: 39°   Visibility: 6mi
Dew Point: 36°   Wind: 8mph
Humidity: 87%   Direction: 270°W
Pressure: 30.18"   Gusts: NA
Location:  53.17°N, 0.09°E
Report Text: EGXC 240150Z 27007KT CAVOK 04/02 Q1022 BLU
Loading
Personal Weather Stations






























Interactive Weather Map New forecast layout! Learn more

10-Day Weather Forecast

Advertisements
Track Severe Weather on mobile